Cottonwood Heights, Utah
Current Conditions -  °F | °C
As of 1:53 PM on Sunday 21 Dec 2014 (Local Time) from KSLC Reporting Station
Overcast Overcast  
Wind Chill:   Ceiling: 4300
Heat Index:   Visibility: 10mi
Dew Point:   Wind: 15mph
Humidity: 86%   Direction: 180°S
Pressure: 29.92"   Gusts: NA
Location:  40.5945°N, 111.827°W
Report Text: KSLC 212053Z 18013KT 10SM FEW025 BKN043 OVC050 06/04 A2992 RMK AO2 RAE10 SLP127 SH DSNT SE P0001 60013 T00610039 57019
Loading
Personal Weather Stations






























Interactive Weather Map New forecast layout! Learn more

10-Day Weather Forecast

Advertisements
Track Severe Weather on mobile